FK-0002 weather

Pebble Island Landing Strip
Pebble Island Settlement, Falkland Islands

Public forecast

Using degrees Celsius for public forecast. Weather courtesy of forecast.io.

METAR (pilot weather report)

Report is more than 6 hours old.

Closest report is Mount Pleasant Airport, 53.2 nm (98.5 km) SE. Retrieved 2019/07/16 13:50 UTC (2 days ago):

EGYP 161350Z 32016KT 9999 FEW012 06/04 Q998 BLU NOSIG

TAF (pilot weather forecast)

Closest forecast is Mount Pleasant Airport, 53.2 nm (98.5 km) SE. Retrieved 2019/07/18 03:36 UTC (0 seconds ago):

TAF EGYP 180116Z 1803/1821 07015KT 9999 FEW010 TEMPO 1803/1821 -RA BKN010 PROB40 TEMPO 1804/1809 08020G30KT 3000 RADZ BKN005 BECMG 1809/1812 12020KT PROB30 TEMPO 1809/1812 11020G30KT 2000 RADZ SCT004 BKN008 BECMG 1812/1815 17020G30KT PROB30 TEMPO 1812/1820 3000 -RASN BKN004 PROB30 TEMPO 1816/1820 18030G40KT